sensor_id;sensor_type;location;lat;lon;timestamp;temperature;humidity
30300;DHT22;17110;52.602;12.998;2024-03-06T00:00:26;-1.10;99.90
30300;DHT22;17110;52.602;12.998;2024-03-06T00:05:26;-1.10;99.90
30300;DHT22;17110;52.602;12.998;2024-03-06T00:10:27;-1.30;99.90
30300;DHT22;17110;52.602;12.998;2024-03-06T00:15:29;-1.30;99.90
30300;DHT22;17110;52.602;12.998;2024-03-06T00:20:30;-1.30;99.90
30300;DHT22;17110;52.602;12.998;2024-03-06T00:25:31;-1.40;99.90
30300;DHT22;17110;52.602;12.998;2024-03-06T00:30:33;-1.40;99.90
30300;DHT22;17110;52.602;12.998;2024-03-06T00:35:34;-1.40;99.90
30300;DHT22;17110;52.602;12.998;2024-03-06T00:40:34;-1.40;99.90
30300;DHT22;17110;52.602;12.998;2024-03-06T00:45:36;-1.40;99.90
30300;DHT22;17110;52.602;12.998;2024-03-06T00:50:37;-1.40;99.90
30300;DHT22;17110;52.602;12.998;2024-03-06T00:55:38;-1.40;99.90
30300;DHT22;17110;52.602;12.998;2024-03-06T01:00:40;-1.40;99.90
30300;DHT22;17110;52.602;12.998;2024-03-06T01:05:41;-1.40;99.90
30300;DHT22;17110;52.602;12.998;2024-03-06T01:10:41;-1.50;99.90
30300;DHT22;17110;52.602;12.998;2024-03-06T01:15:44;-1.50;99.90
30300;DHT22;17110;52.602;12.998;2024-03-06T01:20:44;-1.50;99.90
30300;DHT22;17110;52.602;12.998;2024-03-06T01:25:45;-1.60;99.90
30300;DHT22;17110;52.602;12.998;2024-03-06T01:30:47;-1.60;99.90
30300;DHT22;17110;52.602;12.998;2024-03-06T01:35:48;-1.70;99.90
30300;DHT22;17110;52.602;12.998;2024-03-06T01:40:49;-1.70;99.90
30300;DHT22;17110;52.602;12.998;2024-03-06T01:45:51;-1.80;99.90
30300;DHT22;17110;52.602;12.998;2024-03-06T01:50:53;-1.80;99.90
30300;DHT22;17110;52.602;12.998;2024-03-06T01:55:55;-1.80;99.90
30300;DHT22;17110;52.602;12.998;2024-03-06T02:00:57;-1.80;99.90
30300;DHT22;17110;52.602;12.998;2024-03-06T02:06:00;-1.90;99.90
30300;DHT22;17110;52.602;12.998;2024-03-06T02:11:03;-1.90;99.90
30300;DHT22;17110;52.602;12.998;2024-03-06T02:16:05;-1.90;99.90
30300;DHT22;17110;52.602;12.998;2024-03-06T02:21:08;-1.90;99.90
30300;DHT22;17110;52.602;12.998;2024-03-06T02:26:10;-2.00;99.90
30300;DHT22;17110;52.602;12.998;2024-03-06T02:31:11;-2.00;99.90
30300;DHT22;17110;52.602;12.998;2024-03-06T02:36:13;-2.00;99.90
30300;DHT22;17110;52.602;12.998;2024-03-06T02:41:14;-2.10;99.90
30300;DHT22;17110;52.602;12.998;2024-03-06T02:46:15;-2.10;99.90
30300;DHT22;17110;52.602;12.998;2024-03-06T02:51:19;-2.10;99.90
30300;DHT22;17110;52.602;12.998;2024-03-06T02:56:20;-2.10;99.90
30300;DHT22;17110;52.602;12.998;2024-03-06T03:01:21;-2.20;99.90
30300;DHT22;17110;52.602;12.998;2024-03-06T03:06:23;-2.20;99.90
30300;DHT22;17110;52.602;12.998;2024-03-06T03:11:23;-2.30;99.90
30300;DHT22;17110;52.602;12.998;2024-03-06T03:16:24;-2.30;99.90
30300;DHT22;17110;52.602;12.998;2024-03-06T03:21:26;-2.30;99.90
30300;DHT22;17110;52.602;12.998;2024-03-06T03:26:27;-2.40;99.90
30300;DHT22;17110;52.602;12.998;2024-03-06T03:31:28;-2.40;99.90
30300;DHT22;17110;52.602;12.998;2024-03-06T03:36:30;-2.30;99.90
30300;DHT22;17110;52.602;12.998;2024-03-06T03:41:30;-2.30;99.90
30300;DHT22;17110;52.602;12.998;2024-03-06T03:46:31;-2.30;99.90
30300;DHT22;17110;52.602;12.998;2024-03-06T03:51:33;-2.30;99.90
30300;DHT22;17110;52.602;12.998;2024-03-06T03:56:34;-2.30;99.90
30300;DHT22;17110;52.602;12.998;2024-03-06T04:01:35;-2.40;99.90
30300;DHT22;17110;52.602;12.998;2024-03-06T04:06:37;-2.40;99.90
30300;DHT22;17110;52.602;12.998;2024-03-06T04:11:38;-2.40;99.90
30300;DHT22;17110;52.602;12.998;2024-03-06T04:16:39;-2.50;99.90
30300;DHT22;17110;52.602;12.998;2024-03-06T04:21:42;-2.50;99.90
30300;DHT22;17110;52.602;12.998;2024-03-06T04:26:43;-2.50;99.90
30300;DHT22;17110;52.602;12.998;2024-03-06T04:31:43;-2.50;99.90
30300;DHT22;17110;52.602;12.998;2024-03-06T04:36:45;-2.60;99.90
30300;DHT22;17110;52.602;12.998;2024-03-06T04:41:46;-2.70;99.90
30300;DHT22;17110;52.602;12.998;2024-03-06T04:46:49;-2.70;99.90
30300;DHT22;17110;52.602;12.998;2024-03-06T04:51:52;-2.70;99.90
30300;DHT22;17110;52.602;12.998;2024-03-06T04:56:52;-2.70;99.90
30300;DHT22;17110;52.602;12.998;2024-03-06T05:01:53;-2.70;99.90
30300;DHT22;17110;52.602;12.998;2024-03-06T05:06:55;-2.80;99.90
30300;DHT22;17110;52.602;12.998;2024-03-06T05:11:56;-2.80;99.90
30300;DHT22;17110;52.602;12.998;2024-03-06T05:16:56;-2.80;99.90
30300;DHT22;17110;52.602;12.998;2024-03-06T05:21:58;-2.80;99.90
30300;DHT22;17110;52.602;12.998;2024-03-06T05:26:59;-2.80;99.90
30300;DHT22;17110;52.602;12.998;2024-03-06T05:32:00;-2.70;99.90
30300;DHT22;17110;52.602;12.998;2024-03-06T05:37:02;-2.80;99.90
30300;DHT22;17110;52.602;12.998;2024-03-06T05:42:03;-2.70;99.90
30300;DHT22;17110;52.602;12.998;2024-03-06T05:47:04;-2.70;99.90
30300;DHT22;17110;52.602;12.998;2024-03-06T05:52:06;-2.70;99.90
30300;DHT22;17110;52.602;12.998;2024-03-06T05:57:07;-2.60;99.90
30300;DHT22;17110;52.602;12.998;2024-03-06T06:02:08;-2.60;99.90
30300;DHT22;17110;52.602;12.998;2024-03-06T06:07:10;-2.50;99.90
30300;DHT22;17110;52.602;12.998;2024-03-06T06:12:10;-2.50;99.90
30300;DHT22;17110;52.602;12.998;2024-03-06T06:17:11;-2.40;99.90
30300;DHT22;17110;52.602;12.998;2024-03-06T06:22:13;-2.20;99.90
30300;DHT22;17110;52.602;12.998;2024-03-06T06:27:14;-1.90;99.90
30300;DHT22;17110;52.602;12.998;2024-03-06T06:32:15;-1.70;99.90
30300;DHT22;17110;52.602;12.998;2024-03-06T06:37:17;-1.40;99.90
30300;DHT22;17110;52.602;12.998;2024-03-06T06:42:18;-1.10;99.90
30300;DHT22;17110;52.602;12.998;2024-03-06T06:47:19;-0.60;99.90
30300;DHT22;17110;52.602;12.998;2024-03-06T06:52:21;-0.40;99.90
30300;DHT22;17110;52.602;12.998;2024-03-06T06:57:21;-0.10;99.90
30300;DHT22;17110;52.602;12.998;2024-03-06T07:02:22;0.10;99.90
30300;DHT22;17110;52.602;12.998;2024-03-06T07:07:24;0.30;99.90
30300;DHT22;17110;52.602;12.998;2024-03-06T07:12:25;0.60;99.90
30300;DHT22;17110;52.602;12.998;2024-03-06T07:17:26;0.80;99.90
30300;DHT22;17110;52.602;12.998;2024-03-06T07:22:28;1.10;99.90
30300;DHT22;17110;52.602;12.998;2024-03-06T07:27:28;1.50;99.90
30300;DHT22;17110;52.602;12.998;2024-03-06T07:32:29;2.00;99.90
30300;DHT22;17110;52.602;12.998;2024-03-06T07:37:31;2.40;99.90
30300;DHT22;17110;52.602;12.998;2024-03-06T07:42:32;2.60;99.90
30300;DHT22;17110;52.602;12.998;2024-03-06T07:47:33;3.00;99.90
30300;DHT22;17110;52.602;12.998;2024-03-06T07:52:35;3.30;99.90
30300;DHT22;17110;52.602;12.998;2024-03-06T07:57:35;3.40;99.90
30300;DHT22;17110;52.602;12.998;2024-03-06T08:02:36;3.50;99.90
30300;DHT22;17110;52.602;12.998;2024-03-06T08:07:38;3.70;99.90
30300;DHT22;17110;52.602;12.998;2024-03-06T08:12:40;4.00;99.90
30300;DHT22;17110;52.602;12.998;2024-03-06T08:17:41;4.40;99.90
30300;DHT22;17110;52.602;12.998;2024-03-06T08:22:44;4.50;99.90
30300;DHT22;17110;52.602;12.998;2024-03-06T08:27:45;4.60;99.90
30300;DHT22;17110;52.602;12.998;2024-03-06T08:32:45;4.80;99.90
30300;DHT22;17110;52.602;12.998;2024-03-06T08:37:47;5.20;99.90
30300;DHT22;17110;52.602;12.998;2024-03-06T08:42:48;5.40;99.90
30300;DHT22;17110;52.602;12.998;2024-03-06T08:47:49;5.20;99.90
30300;DHT22;17110;52.602;12.998;2024-03-06T08:52:51;5.10;99.90
30300;DHT22;17110;52.602;12.998;2024-03-06T08:57:52;5.40;99.90
30300;DHT22;17110;52.602;12.998;2024-03-06T09:02:53;5.70;99.90
30300;DHT22;17110;52.602;12.998;2024-03-06T09:07:55;5.70;99.90
30300;DHT22;17110;52.602;12.998;2024-03-06T09:12:56;5.90;99.90
30300;DHT22;17110;52.602;12.998;2024-03-06T09:17:56;6.10;99.90
30300;DHT22;17110;52.602;12.998;2024-03-06T09:22:58;6.30;99.90
30300;DHT22;17110;52.602;12.998;2024-03-06T09:27:59;6.40;99.90
30300;DHT22;17110;52.602;12.998;2024-03-06T09:33:00;6.70;99.90
30300;DHT22;17110;52.602;12.998;2024-03-06T09:38:02;6.90;99.90
30300;DHT22;17110;52.602;12.998;2024-03-06T09:43:03;6.90;99.90
30300;DHT22;17110;52.602;12.998;2024-03-06T09:48:04;7.20;99.90
30300;DHT22;17110;52.602;12.998;2024-03-06T09:53:08;7.10;99.90
30300;DHT22;17110;52.602;12.998;2024-03-06T09:58:10;6.80;99.90
30300;DHT22;17110;52.602;12.998;2024-03-06T10:03:11;7.10;99.90
30300;DHT22;17110;52.602;12.998;2024-03-06T10:08:13;7.30;99.90
30300;DHT22;17110;52.602;12.998;2024-03-06T10:13:16;7.30;99.90
30300;DHT22;17110;52.602;12.998;2024-03-06T10:18:17;7.20;99.90
30300;DHT22;17110;52.602;12.998;2024-03-06T10:23:19;7.20;99.90
30300;DHT22;17110;52.602;12.998;2024-03-06T10:28:20;7.00;99.90
30300;DHT22;17110;52.602;12.998;2024-03-06T10:33:21;7.20;99.90
30300;DHT22;17110;52.602;12.998;2024-03-06T10:38:24;7.40;99.90
30300;DHT22;17110;52.602;12.998;2024-03-06T10:43:26;7.50;99.90
30300;DHT22;17110;52.602;12.998;2024-03-06T10:48:28;7.20;99.90
30300;DHT22;17110;52.602;12.998;2024-03-06T10:53:31;6.80;99.90
30300;DHT22;17110;52.602;12.998;2024-03-06T10:58:33;6.70;99.90
30300;DHT22;17110;52.602;12.998;2024-03-06T11:03:34;7.00;99.90
30300;DHT22;17110;52.602;12.998;2024-03-06T11:08:37;7.30;99.90
30300;DHT22;17110;52.602;12.998;2024-03-06T11:13:40;7.40;99.90
30300;DHT22;17110;52.602;12.998;2024-03-06T11:18:42;7.40;99.90
30300;DHT22;17110;52.602;12.998;2024-03-06T11:24:14;7.10;99.90
30300;DHT22;17110;52.602;12.998;2024-03-06T11:29:16;6.90;99.90
30300;DHT22;17110;52.602;12.998;2024-03-06T11:34:17;7.50;99.90
30300;DHT22;17110;52.602;12.998;2024-03-06T11:39:19;7.40;99.90
30300;DHT22;17110;52.602;12.998;2024-03-06T11:44:22;7.60;99.90
30300;DHT22;17110;52.602;12.998;2024-03-06T11:49:23;7.40;99.90
30300;DHT22;17110;52.602;12.998;2024-03-06T11:54:26;7.20;99.90
30300;DHT22;17110;52.602;12.998;2024-03-06T11:59:28;7.10;99.90
30300;DHT22;17110;52.602;12.998;2024-03-06T12:04:31;7.30;99.90
30300;DHT22;17110;52.602;12.998;2024-03-06T12:09:34;7.60;99.90
30300;DHT22;17110;52.602;12.998;2024-03-06T12:14:35;7.30;99.90
30300;DHT22;17110;52.602;12.998;2024-03-06T12:19:36;7.60;99.90
30300;DHT22;17110;52.602;12.998;2024-03-06T12:24:38;8.00;99.90
30300;DHT22;17110;52.602;12.998;2024-03-06T12:29:39;8.00;99.90
30300;DHT22;17110;52.602;12.998;2024-03-06T12:34:40;8.20;99.90
30300;DHT22;17110;52.602;12.998;2024-03-06T12:39:44;8.40;99.90
30300;DHT22;17110;52.602;12.998;2024-03-06T12:44:45;8.20;99.90
30300;DHT22;17110;52.602;12.998;2024-03-06T12:49:46;8.00;99.90
30300;DHT22;17110;52.602;12.998;2024-03-06T12:54:48;8.00;99.90
30300;DHT22;17110;52.602;12.998;2024-03-06T12:59:48;7.70;99.90
30300;DHT22;17110;52.602;12.998;2024-03-06T13:04:49;7.70;99.90
30300;DHT22;17110;52.602;12.998;2024-03-06T13:09:51;8.00;99.90
30300;DHT22;17110;52.602;12.998;2024-03-06T13:14:52;8.40;99.90
30300;DHT22;17110;52.602;12.998;2024-03-06T13:19:53;8.50;99.90
30300;DHT22;17110;52.602;12.998;2024-03-06T13:24:55;8.60;99.90
30300;DHT22;17110;52.602;12.998;2024-03-06T13:29:55;8.40;99.90
30300;DHT22;17110;52.602;12.998;2024-03-06T13:34:56;8.40;99.90
30300;DHT22;17110;52.602;12.998;2024-03-06T13:39:58;8.20;99.90
30300;DHT22;17110;52.602;12.998;2024-03-06T13:44:59;8.30;99.90
30300;DHT22;17110;52.602;12.998;2024-03-06T13:50:00;8.50;99.90
30300;DHT22;17110;52.602;12.998;2024-03-06T13:55:02;8.80;99.90
30300;DHT22;17110;52.602;12.998;2024-03-06T14:00:04;8.60;99.90
30300;DHT22;17110;52.602;12.998;2024-03-06T14:05:12;8.20;99.90
30300;DHT22;17110;52.602;12.998;2024-03-06T14:10:14;8.10;99.90
30300;DHT22;17110;52.602;12.998;2024-03-06T14:15:15;8.00;99.90
30300;DHT22;17110;52.602;12.998;2024-03-06T14:20:16;7.90;99.90
30300;DHT22;17110;52.602;12.998;2024-03-06T14:25:18;7.90;99.90
30300;DHT22;17110;52.602;12.998;2024-03-06T14:30:19;8.10;99.90
30300;DHT22;17110;52.602;12.998;2024-03-06T14:35:20;8.10;99.90
30300;DHT22;17110;52.602;12.998;2024-03-06T14:40:22;8.10;99.90
30300;DHT22;17110;52.602;12.998;2024-03-06T14:45:22;8.00;99.90
30300;DHT22;17110;52.602;12.998;2024-03-06T14:50:23;8.00;99.90
30300;DHT22;17110;52.602;12.998;2024-03-06T14:55:25;8.00;99.90
30300;DHT22;17110;52.602;12.998;2024-03-06T15:00:26;8.00;99.90
30300;DHT22;17110;52.602;12.998;2024-03-06T15:05:27;7.90;99.90
30300;DHT22;17110;52.602;12.998;2024-03-06T15:10:29;7.90;99.90
30300;DHT22;17110;52.602;12.998;2024-03-06T15:15:30;8.00;99.90
30300;DHT22;17110;52.602;12.998;2024-03-06T15:20:31;7.90;99.90
30300;DHT22;17110;52.602;12.998;2024-03-06T15:25:33;7.90;99.90
30300;DHT22;17110;52.602;12.998;2024-03-06T15:30:34;7.80;99.90
30300;DHT22;17110;52.602;12.998;2024-03-06T15:35:34;7.90;99.90
30300;DHT22;17110;52.602;12.998;2024-03-06T15:40:36;7.90;99.90
30300;DHT22;17110;52.602;12.998;2024-03-06T15:45:37;7.80;99.90
30300;DHT22;17110;52.602;12.998;2024-03-06T15:50:38;7.90;99.90
30300;DHT22;17110;52.602;12.998;2024-03-06T15:55:40;7.90;99.90
30300;DHT22;17110;52.602;12.998;2024-03-06T16:00:42;7.90;99.90
30300;DHT22;17110;52.602;12.998;2024-03-06T16:05:42;7.90;99.90
30300;DHT22;17110;52.602;12.998;2024-03-06T16:10:44;7.80;99.90
30300;DHT22;17110;52.602;12.998;2024-03-06T16:15:45;7.80;99.90
30300;DHT22;17110;52.602;12.998;2024-03-06T16:20:47;7.70;99.90
30300;DHT22;17110;52.602;12.998;2024-03-06T16:25:50;7.70;99.90
30300;DHT22;17110;52.602;12.998;2024-03-06T16:30:50;7.60;99.90
30300;DHT22;17110;52.602;12.998;2024-03-06T16:35:51;7.50;99.90
30300;DHT22;17110;52.602;12.998;2024-03-06T16:40:53;7.50;99.90
30300;DHT22;17110;52.602;12.998;2024-03-06T16:45:54;7.50;99.90
30300;DHT22;17110;52.602;12.998;2024-03-06T16:50:55;7.40;99.90
30300;DHT22;17110;52.602;12.998;2024-03-06T16:55:57;7.40;99.90
30300;DHT22;17110;52.602;12.998;2024-03-06T17:00:57;7.30;99.90
30300;DHT22;17110;52.602;12.998;2024-03-06T17:05:58;7.30;99.90
30300;DHT22;17110;52.602;12.998;2024-03-06T17:11:00;7.20;99.90
30300;DHT22;17110;52.602;12.998;2024-03-06T17:16:01;7.10;99.90
30300;DHT22;17110;52.602;12.998;2024-03-06T17:21:02;7.00;99.90
30300;DHT22;17110;52.602;12.998;2024-03-06T17:26:04;7.10;99.90
30300;DHT22;17110;52.602;12.998;2024-03-06T17:31:05;7.00;99.90
30300;DHT22;17110;52.602;12.998;2024-03-06T17:36:06;7.00;99.90
30300;DHT22;17110;52.602;12.998;2024-03-06T17:41:08;7.00;99.90
30300;DHT22;17110;52.602;12.998;2024-03-06T17:46:09;6.90;99.90
30300;DHT22;17110;52.602;12.998;2024-03-06T17:51:10;6.90;99.90
30300;DHT22;17110;52.602;12.998;2024-03-06T17:56:12;6.90;99.90
30300;DHT22;17110;52.602;12.998;2024-03-06T18:01:12;6.80;99.90
30300;DHT22;17110;52.602;12.998;2024-03-06T18:06:13;6.90;99.90
30300;DHT22;17110;52.602;12.998;2024-03-06T18:11:15;6.90;99.90
30300;DHT22;17110;52.602;12.998;2024-03-06T18:16:16;6.90;99.90
30300;DHT22;17110;52.602;12.998;2024-03-06T18:21:17;6.90;99.90
30300;DHT22;17110;52.602;12.998;2024-03-06T18:26:20;6.90;99.90
30300;DHT22;17110;52.602;12.998;2024-03-06T18:31:20;6.90;99.90
30300;DHT22;17110;52.602;12.998;2024-03-06T18:36:21;6.90;99.90
30300;DHT22;17110;52.602;12.998;2024-03-06T18:41:23;6.90;99.90
30300;DHT22;17110;52.602;12.998;2024-03-06T18:46:24;6.80;99.90
30300;DHT22;17110;52.602;12.998;2024-03-06T18:51:25;6.80;99.90
30300;DHT22;17110;52.602;12.998;2024-03-06T18:56:27;6.90;99.90
30300;DHT22;17110;52.602;12.998;2024-03-06T19:01:27;6.80;99.90
30300;DHT22;17110;52.602;12.998;2024-03-06T19:06:28;6.80;99.90
30300;DHT22;17110;52.602;12.998;2024-03-06T19:11:30;6.80;99.90
30300;DHT22;17110;52.602;12.998;2024-03-06T19:16:31;6.80;99.90
30300;DHT22;17110;52.602;12.998;2024-03-06T19:21:32;6.80;99.90
30300;DHT22;17110;52.602;12.998;2024-03-06T19:26:34;6.80;99.90
30300;DHT22;17110;52.602;12.998;2024-03-06T19:31:35;6.80;99.90
30300;DHT22;17110;52.602;12.998;2024-03-06T19:36:36;6.70;99.90
30300;DHT22;17110;52.602;12.998;2024-03-06T19:41:38;6.70;99.90
30300;DHT22;17110;52.602;12.998;2024-03-06T19:46:39;6.80;99.90
30300;DHT22;17110;52.602;12.998;2024-03-06T19:51:41;6.70;99.90
30300;DHT22;17110;52.602;12.998;2024-03-06T19:56:43;6.70;99.90
30300;DHT22;17110;52.602;12.998;2024-03-06T20:01:44;6.60;99.90
30300;DHT22;17110;52.602;12.998;2024-03-06T20:06:45;6.60;99.90
30300;DHT22;17110;52.602;12.998;2024-03-06T20:11:47;6.70;99.90
30300;DHT22;17110;52.602;12.998;2024-03-06T20:16:47;6.60;99.90
30300;DHT22;17110;52.602;12.998;2024-03-06T20:21:48;6.60;99.90
30300;DHT22;17110;52.602;12.998;2024-03-06T20:26:50;6.60;99.90
30300;DHT22;17110;52.602;12.998;2024-03-06T20:31:51;6.60;99.90
30300;DHT22;17110;52.602;12.998;2024-03-06T20:36:52;6.50;99.90
30300;DHT22;17110;52.602;12.998;2024-03-06T20:41:54;6.50;99.90
30300;DHT22;17110;52.602;12.998;2024-03-06T20:46:55;6.50;99.90
30300;DHT22;17110;52.602;12.998;2024-03-06T20:51:55;6.50;99.90
30300;DHT22;17110;52.602;12.998;2024-03-06T20:56:58;6.50;99.90
30300;DHT22;17110;52.602;12.998;2024-03-06T21:01:58;6.50;99.90
30300;DHT22;17110;52.602;12.998;2024-03-06T21:06:59;6.50;99.90
30300;DHT22;17110;52.602;12.998;2024-03-06T21:12:01;6.50;99.90
30300;DHT22;17110;52.602;12.998;2024-03-06T21:17:02;6.30;99.90
30300;DHT22;17110;52.602;12.998;2024-03-06T21:22:03;6.30;99.90
30300;DHT22;17110;52.602;12.998;2024-03-06T21:27:05;6.30;99.90
30300;DHT22;17110;52.602;12.998;2024-03-06T21:32:06;6.20;99.90
30300;DHT22;17110;52.602;12.998;2024-03-06T21:37:07;6.30;99.90
30300;DHT22;17110;52.602;12.998;2024-03-06T21:42:09;6.20;99.90
30300;DHT22;17110;52.602;12.998;2024-03-06T21:47:10;6.20;99.90
30300;DHT22;17110;52.602;12.998;2024-03-06T21:52:10;6.20;99.90
30300;DHT22;17110;52.602;12.998;2024-03-06T21:57:13;6.30;99.90
30300;DHT22;17110;52.602;12.998;2024-03-06T22:02:13;6.30;99.90
30300;DHT22;17110;52.602;12.998;2024-03-06T22:07:14;6.20;99.90
30300;DHT22;17110;52.602;12.998;2024-03-06T22:12:16;6.20;99.90
30300;DHT22;17110;52.602;12.998;2024-03-06T22:17:18;6.30;99.90
30300;DHT22;17110;52.602;12.998;2024-03-06T22:22:18;6.20;99.90
30300;DHT22;17110;52.602;12.998;2024-03-06T22:27:20;6.20;99.90
30300;DHT22;17110;52.602;12.998;2024-03-06T22:32:21;6.20;99.90
30300;DHT22;17110;52.602;12.998;2024-03-06T22:37:24;6.20;99.90
30300;DHT22;17110;52.602;12.998;2024-03-06T22:42:27;6.30;99.90
30300;DHT22;17110;52.602;12.998;2024-03-06T22:47:27;6.30;99.90
30300;DHT22;17110;52.602;12.998;2024-03-06T22:52:28;6.30;99.90
30300;DHT22;17110;52.602;12.998;2024-03-06T22:57:30;6.30;99.90
30300;DHT22;17110;52.602;12.998;2024-03-06T23:02:31;6.30;99.90
30300;DHT22;17110;52.602;12.998;2024-03-06T23:07:32;6.20;99.90
30300;DHT22;17110;52.602;12.998;2024-03-06T23:12:34;6.20;99.90
30300;DHT22;17110;52.602;12.998;2024-03-06T23:17:35;6.20;99.90
30300;DHT22;17110;52.602;12.998;2024-03-06T23:22:38;6.20;99.90
30300;DHT22;17110;52.602;12.998;2024-03-06T23:27:41;6.20;99.90
30300;DHT22;17110;52.602;12.998;2024-03-06T23:32:42;6.20;99.90
30300;DHT22;17110;52.602;12.998;2024-03-06T23:37:43;6.20;99.90
30300;DHT22;17110;52.602;12.998;2024-03-06T23:42:46;6.10;99.90
30300;DHT22;17110;52.602;12.998;2024-03-06T23:47:47;6.20;99.90
30300;DHT22;17110;52.602;12.998;2024-03-06T23:52:48;6.10;99.90
30300;DHT22;17110;52.602;12.998;2024-03-06T23:57:50;6.10;99.90
